TSC66 EGKK-CYYT
Flight info
| Callsign | TSC66 |
|---|---|
| Flight time | N/A |
| Altitude | 34000 |
| Route | IMVUR N63 SAM N19 ADKIK DCT PEWBI DCT MOPAT DCT TOBOR/M078F360 DCT 5230N02000W 5130N03000W 50N040W 4830N05000W DCT MUSAK/N0442F360 DCT TIGOR TIGOR5 |
| Aircraft | A21N/M-SDE2E3FGHIRWXY/LB1 |
Departure
| Time | 2026-05-07 16:29 |
|---|---|
| Airport | London Gatwick Airport (EGKK) |
Arrival
| Time | N/A |
|---|---|
| Airport | St. John's International Airport (CYYT) |
| Time | Latitude | Longitude | Altitude | Speed | Heading |
|---|---|---|---|---|---|
| 2026-05-07 15:47 | 51.15982 | -0.17986 | 198 ft | 0 kts | 78° |
| 2026-05-07 16:12 | 51.15981 | -0.17995 | 198 ft | 2 kts | 78° |
| 2026-05-07 16:12 | 51.15978 | -0.18018 | 198 ft | 2 kts | 78° |
| 2026-05-07 16:13 | 51.15975 | -0.18041 | 198 ft | 2 kts | 78° |
| 2026-05-07 16:13 | 51.15972 | -0.18064 | 198 ft | 2 kts | 78° |
| 2026-05-07 16:13 | 51.15969 | -0.18088 | 198 ft | 2 kts | 78° |
| 2026-05-07 16:13 | 51.15968 | -0.18112 | 198 ft | 2 kts | 115° |
| 2026-05-07 16:14 | 51.15979 | -0.18130 | 198 ft | 2 kts | 156° |
| 2026-05-07 16:14 | 51.15986 | -0.18133 | 198 ft | 1 kts | 171° |
| 2026-05-07 16:14 | 51.15989 | -0.18134 | 198 ft | 0 kts | 168° |
| 2026-05-07 16:19 | 51.15988 | -0.18133 | 198 ft | 1 kts | 168° |
| 2026-05-07 16:19 | 51.15923 | -0.18111 | 197 ft | 16 kts | 167° |
| 2026-05-07 16:20 | 51.15797 | -0.18065 | 198 ft | 19 kts | 167° |
| 2026-05-07 16:20 | 51.15687 | -0.18077 | 197 ft | 15 kts | 237° |
| 2026-05-07 16:20 | 51.15655 | -0.18251 | 197 ft | 16 kts | 255° |
| 2026-05-07 16:20 | 51.15574 | -0.18352 | 197 ft | 17 kts | 174° |
| 2026-05-07 16:21 | 51.15457 | -0.18300 | 198 ft | 17 kts | 166° |
| 2026-05-07 16:21 | 51.15352 | -0.18265 | 198 ft | 14 kts | 169° |
| 2026-05-07 16:21 | 51.15247 | -0.18232 | 198 ft | 15 kts | 169° |
| 2026-05-07 16:21 | 51.15176 | -0.18342 | 197 ft | 16 kts | 258° |
| 2026-05-07 16:22 | 51.15155 | -0.18525 | 198 ft | 17 kts | 260° |
| 2026-05-07 16:22 | 51.15129 | -0.18722 | 198 ft | 18 kts | 257° |
| 2026-05-07 16:22 | 51.15100 | -0.18922 | 198 ft | 19 kts | 258° |
| 2026-05-07 16:22 | 51.15072 | -0.19134 | 198 ft | 20 kts | 258° |
| 2026-05-07 16:23 | 51.15039 | -0.19375 | 197 ft | 23 kts | 258° |
| 2026-05-07 16:23 | 51.15002 | -0.19648 | 198 ft | 26 kts | 257° |
| 2026-05-07 16:23 | 51.14956 | -0.19950 | 198 ft | 29 kts | 255° |
| 2026-05-07 16:23 | 51.14916 | -0.20270 | 198 ft | 30 kts | 259° |
| 2026-05-07 16:24 | 51.14870 | -0.20592 | 198 ft | 29 kts | 256° |
| 2026-05-07 16:24 | 51.14831 | -0.20901 | 197 ft | 28 kts | 257° |
| 2026-05-07 16:24 | 51.14793 | -0.21150 | 198 ft | 16 kts | 248° |
| 2026-05-07 16:24 | 51.14759 | -0.21330 | 198 ft | 17 kts | 254° |
| 2026-05-07 16:25 | 51.14696 | -0.21395 | 198 ft | 10 kts | 167° |
| 2026-05-07 16:25 | 51.14629 | -0.21336 | 198 ft | 7 kts | 156° |
| 2026-05-07 16:25 | 51.14615 | -0.21327 | 197 ft | 0 kts | 158° |
| 2026-05-07 16:27 | 51.14581 | -0.21305 | 198 ft | 11 kts | 157° |
| 2026-05-07 16:27 | 51.14514 | -0.21183 | 197 ft | 11 kts | 81° |
| 2026-05-07 16:28 | 51.14525 | -0.21108 | 197 ft | 3 kts | 78° |
| 2026-05-07 16:28 | 51.14532 | -0.21055 | 198 ft | 7 kts | 78° |
| 2026-05-07 16:28 | 51.14571 | -0.20773 | 198 ft | 59 kts | 77° |
| 2026-05-07 16:28 | 51.14716 | -0.19714 | 198 ft | 132 kts | 78° |
| 2026-05-07 16:29 | 51.14953 | -0.17972 | 255 ft | 185 kts | 79° |
| 2026-05-07 16:29 | 51.15244 | -0.15776 | 575 ft | 216 kts | 80° |
| 2026-05-07 16:29 | 51.15554 | -0.13302 | 1012 ft | 239 kts | 80° |
| 2026-05-07 16:29 | 51.15904 | -0.10736 | 1770 ft | 234 kts | 79° |
| 2026-05-07 16:30 | 51.16268 | -0.08265 | 2442 ft | 230 kts | 75° |
| 2026-05-07 16:30 | 51.17074 | -0.06081 | 2847 ft | 233 kts | 42° |
| 2026-05-07 16:30 | 51.18538 | -0.04963 | 3008 ft | 240 kts | 6° |
| 2026-05-07 16:30 | 51.20209 | -0.05238 | 3276 ft | 249 kts | 345° |
| 2026-05-07 16:31 | 51.21818 | -0.06431 | 3558 ft | 263 kts | 315° |
| 2026-05-07 16:31 | 51.22759 | -0.08901 | 3979 ft | 266 kts | 279° |
| 2026-05-07 16:31 | 51.22739 | -0.11755 | 4475 ft | 266 kts | 256° |
| 2026-05-07 16:31 | 51.22363 | -0.14604 | 5204 ft | 264 kts | 254° |
| 2026-05-07 16:32 | 51.21968 | -0.17482 | 5843 ft | 265 kts | 255° |
| 2026-05-07 16:32 | 51.21602 | -0.20342 | 6519 ft | 265 kts | 255° |
| 2026-05-07 16:32 | 51.21247 | -0.23246 | 7154 ft | 267 kts | 255° |
| 2026-05-07 16:32 | 51.20900 | -0.26154 | 7806 ft | 267 kts | 256° |
| 2026-05-07 16:33 | 51.20570 | -0.28967 | 8462 ft | 266 kts | 257° |
| 2026-05-07 16:33 | 51.20249 | -0.31745 | 9111 ft | 264 kts | 257° |
| 2026-05-07 16:33 | 51.19923 | -0.34603 | 9631 ft | 267 kts | 256° |
| 2026-05-07 16:33 | 51.19554 | -0.37500 | 10168 ft | 268 kts | 256° |
| 2026-05-07 16:34 | 51.19168 | -0.40390 | 10785 ft | 266 kts | 256° |
| 2026-05-07 16:34 | 51.18788 | -0.43253 | 11346 ft | 266 kts | 257° |
| 2026-05-07 16:34 | 51.18406 | -0.46166 | 11864 ft | 267 kts | 258° |
| 2026-05-07 16:34 | 51.18029 | -0.49047 | 12357 ft | 268 kts | 258° |
| 2026-05-07 16:35 | 51.17614 | -0.51897 | 12849 ft | 268 kts | 255° |
| 2026-05-07 16:35 | 51.17049 | -0.54734 | 13324 ft | 269 kts | 250° |
| 2026-05-07 16:35 | 51.16337 | -0.57558 | 13530 ft | 280 kts | 248° |
| 2026-05-07 16:35 | 51.15561 | -0.60481 | 13734 ft | 291 kts | 248° |
| 2026-05-07 16:36 | 51.14761 | -0.63484 | 13933 ft | 301 kts | 248° |
| 2026-05-07 16:36 | 51.13927 | -0.66612 | 14132 ft | 311 kts | 248° |
| 2026-05-07 16:36 | 51.13119 | -0.69644 | 14317 ft | 321 kts | 248° |
| 2026-05-07 16:36 | 51.12345 | -0.72552 | 14488 ft | 330 kts | 248° |
| 2026-05-07 16:37 | 51.11438 | -0.75944 | 14823 ft | 335 kts | 248° |
| 2026-05-07 16:37 | 51.10528 | -0.79337 | 15316 ft | 336 kts | 248° |
| 2026-05-07 16:37 | 51.09613 | -0.82743 | 15813 ft | 336 kts | 248° |
| 2026-05-07 16:37 | 51.08691 | -0.86168 | 16280 ft | 336 kts | 248° |
| 2026-05-07 16:38 | 51.07771 | -0.89578 | 16733 ft | 337 kts | 248° |
| 2026-05-07 16:38 | 51.06853 | -0.92979 | 17125 ft | 339 kts | 248° |
| 2026-05-07 16:38 | 51.05912 | -0.96466 | 17420 ft | 344 kts | 248° |
| 2026-05-07 16:38 | 51.04961 | -0.99988 | 17827 ft | 345 kts | 248° |
| 2026-05-07 16:39 | 51.04026 | -1.03444 | 18263 ft | 345 kts | 248° |
| 2026-05-07 16:39 | 51.03071 | -1.06964 | 18681 ft | 345 kts | 248° |
| 2026-05-07 16:39 | 51.02121 | -1.10460 | 19069 ft | 346 kts | 248° |
| 2026-05-07 16:39 | 51.01168 | -1.13960 | 19446 ft | 347 kts | 248° |
| 2026-05-07 16:40 | 51.00207 | -1.17481 | 19817 ft | 348 kts | 248° |
| 2026-05-07 16:40 | 50.99240 | -1.21016 | 20020 ft | 348 kts | 248° |
| 2026-05-07 16:40 | 50.98282 | -1.24515 | 20030 ft | 347 kts | 248° |
| 2026-05-07 16:40 | 50.97316 | -1.28041 | 20034 ft | 348 kts | 248° |
| 2026-05-07 16:41 | 50.96413 | -1.31612 | 20035 ft | 347 kts | 251° |
| 2026-05-07 16:41 | 50.95657 | -1.35220 | 20035 ft | 347 kts | 254° |
| 2026-05-07 16:41 | 50.95035 | -1.38912 | 20035 ft | 348 kts | 257° |
| 2026-05-07 16:41 | 50.94529 | -1.42699 | 20036 ft | 348 kts | 258° |
| 2026-05-07 16:42 | 50.94050 | -1.46427 | 20036 ft | 348 kts | 258° |
| 2026-05-07 16:42 | 50.93564 | -1.50206 | 20036 ft | 348 kts | 258° |
| 2026-05-07 16:42 | 50.93085 | -1.53930 | 20036 ft | 348 kts | 258° |
| 2026-05-07 16:42 | 50.92598 | -1.57714 | 20036 ft | 348 kts | 258° |
| 2026-05-07 16:43 | 50.92119 | -1.61432 | 20036 ft | 349 kts | 258° |
| 2026-05-07 16:43 | 50.91650 | -1.65057 | 20034 ft | 349 kts | 258° |
| 2026-05-07 16:43 | 50.91143 | -1.68985 | 20032 ft | 349 kts | 258° |
| 2026-05-07 16:43 | 50.90660 | -1.72714 | 20031 ft | 349 kts | 258° |
| 2026-05-07 16:44 | 50.90168 | -1.76503 | 20030 ft | 349 kts | 258° |
| 2026-05-07 16:44 | 50.89690 | -1.80134 | 20031 ft | 349 kts | 258° |
| 2026-05-07 16:44 | 50.89187 | -1.83889 | 20030 ft | 349 kts | 258° |
| 2026-05-07 16:44 | 50.88680 | -1.87679 | 20031 ft | 349 kts | 258° |
| 2026-05-07 16:45 | 50.88178 | -1.91452 | 20032 ft | 350 kts | 258° |
| 2026-05-07 16:45 | 50.87677 | -1.95238 | 20032 ft | 350 kts | 258° |
| 2026-05-07 16:45 | 50.87181 | -1.98985 | 20033 ft | 350 kts | 258° |
| 2026-05-07 16:45 | 50.86680 | -2.02771 | 20034 ft | 350 kts | 258° |
| 2026-05-07 16:46 | 50.86179 | -2.06535 | 20034 ft | 350 kts | 258° |
| 2026-05-07 16:46 | 50.85679 | -2.10285 | 20034 ft | 350 kts | 258° |
| 2026-05-07 16:46 | 50.85174 | -2.14066 | 20034 ft | 350 kts | 258° |
| 2026-05-07 16:46 | 50.84671 | -2.17820 | 20034 ft | 350 kts | 258° |
| 2026-05-07 16:47 | 50.84166 | -2.21588 | 20033 ft | 350 kts | 258° |
| 2026-05-07 16:47 | 50.83666 | -2.25298 | 20031 ft | 350 kts | 258° |
| 2026-05-07 16:47 | 50.83154 | -2.29101 | 20029 ft | 350 kts | 258° |
| 2026-05-07 16:47 | 50.82645 | -2.32860 | 20026 ft | 350 kts | 258° |
| 2026-05-07 16:48 | 50.82135 | -2.36618 | 20022 ft | 350 kts | 258° |
| 2026-05-07 16:48 | 50.81625 | -2.40371 | 20018 ft | 350 kts | 258° |
| 2026-05-07 16:48 | 50.81112 | -2.44125 | 20014 ft | 350 kts | 258° |
| 2026-05-07 16:48 | 50.80597 | -2.47889 | 20011 ft | 350 kts | 258° |
| 2026-05-07 16:49 | 50.80271 | -2.51732 | 20010 ft | 351 kts | 266° |
| 2026-05-07 16:49 | 50.80346 | -2.55554 | 20009 ft | 353 kts | 274° |
| 2026-05-07 16:49 | 50.80815 | -2.59391 | 20008 ft | 356 kts | 282° |
| 2026-05-07 16:49 | 50.81575 | -2.63125 | 20008 ft | 357 kts | 285° |
| 2026-05-07 16:50 | 50.82379 | -2.66824 | 20010 ft | 357 kts | 284° |
| 2026-05-07 16:50 | 50.83196 | -2.70560 | 20008 ft | 357 kts | 284° |
| 2026-05-07 16:50 | 50.83980 | -2.74148 | 20008 ft | 357 kts | 284° |
| 2026-05-07 16:50 | 50.84789 | -2.77849 | 20008 ft | 357 kts | 284° |
| 2026-05-07 16:51 | 50.85605 | -2.81584 | 20007 ft | 357 kts | 284° |
| 2026-05-07 16:51 | 50.86414 | -2.85297 | 20007 ft | 357 kts | 284° |
| 2026-05-07 16:51 | 50.87223 | -2.89012 | 20007 ft | 357 kts | 284° |
| 2026-05-07 16:51 | 50.88024 | -2.92691 | 20007 ft | 357 kts | 284° |
| 2026-05-07 16:52 | 50.88841 | -2.96449 | 20085 ft | 361 kts | 284° |
| 2026-05-07 16:52 | 50.89664 | -3.00239 | 20478 ft | 361 kts | 284° |
| 2026-05-07 16:52 | 50.90471 | -3.03959 | 20878 ft | 361 kts | 283° |
| 2026-05-07 16:52 | 50.91287 | -3.07733 | 21213 ft | 362 kts | 283° |
| 2026-05-07 16:53 | 50.92102 | -3.11514 | 21532 ft | 364 kts | 282° |
| 2026-05-07 16:53 | 50.92930 | -3.15366 | 21856 ft | 365 kts | 282° |
| 2026-05-07 16:53 | 50.93740 | -3.19146 | 22174 ft | 366 kts | 282° |
| 2026-05-07 16:53 | 50.94558 | -3.22966 | 22489 ft | 367 kts | 282° |
| 2026-05-07 16:54 | 50.95384 | -3.26834 | 22800 ft | 369 kts | 282° |
| 2026-05-07 16:54 | 50.96201 | -3.30665 | 23099 ft | 370 kts | 282° |
| 2026-05-07 16:54 | 50.97023 | -3.34522 | 23393 ft | 371 kts | 282° |
| 2026-05-07 16:54 | 50.97849 | -3.38409 | 23681 ft | 372 kts | 282° |
| 2026-05-07 16:55 | 50.98672 | -3.42291 | 23961 ft | 373 kts | 281° |
| 2026-05-07 16:55 | 50.99497 | -3.46186 | 24234 ft | 374 kts | 281° |
| 2026-05-07 16:55 | 51.00333 | -3.50140 | 24504 ft | 375 kts | 281° |
| 2026-05-07 16:55 | 51.01154 | -3.54038 | 24763 ft | 376 kts | 281° |
| 2026-05-07 16:56 | 51.01984 | -3.57978 | 25018 ft | 377 kts | 281° |
| 2026-05-07 16:56 | 51.02818 | -3.61951 | 25268 ft | 379 kts | 281° |
| 2026-05-07 16:56 | 51.04485 | -3.69917 | 25790 ft | 380 kts | 280° |
| 2026-05-07 16:57 | 51.05318 | -3.73915 | 26051 ft | 381 kts | 280° |
| 2026-05-07 16:57 | 51.06152 | -3.77919 | 26296 ft | 382 kts | 280° |
| 2026-05-07 16:57 | 51.06978 | -3.81895 | 26535 ft | 383 kts | 280° |
| 2026-05-07 16:57 | 51.07817 | -3.85938 | 26791 ft | 385 kts | 280° |
| 2026-05-07 16:58 | 51.08649 | -3.89948 | 27139 ft | 383 kts | 280° |
| 2026-05-07 16:58 | 51.09477 | -3.93942 | 27531 ft | 381 kts | 280° |
| 2026-05-07 16:58 | 51.10309 | -3.97960 | 27901 ft | 379 kts | 280° |
| 2026-05-07 16:58 | 51.11113 | -4.01798 | 28215 ft | 377 kts | 280° |
| 2026-05-07 16:59 | 51.11947 | -4.05785 | 28526 ft | 376 kts | 279° |
| 2026-05-07 16:59 | 51.12763 | -4.09709 | 28824 ft | 374 kts | 279° |
| 2026-05-07 16:59 | 51.13571 | -4.13628 | 29113 ft | 373 kts | 279° |
| 2026-05-07 16:59 | 51.14376 | -4.17542 | 29393 ft | 371 kts | 279° |
| 2026-05-07 17:00 | 51.15169 | -4.21421 | 29661 ft | 370 kts | 279° |
| 2026-05-07 17:00 | 51.15971 | -4.25348 | 29923 ft | 369 kts | 279° |
| 2026-05-07 17:00 | 51.16752 | -4.29190 | 30170 ft | 367 kts | 279° |
| 2026-05-07 17:00 | 51.17534 | -4.33043 | 30410 ft | 366 kts | 279° |
| 2026-05-07 17:01 | 51.18319 | -4.36919 | 30642 ft | 365 kts | 279° |
| 2026-05-07 17:01 | 51.19094 | -4.40760 | 30866 ft | 364 kts | 279° |
| 2026-05-07 17:01 | 51.19865 | -4.44585 | 31081 ft | 363 kts | 279° |
| 2026-05-07 17:01 | 51.20637 | -4.48421 | 31287 ft | 362 kts | 278° |
| 2026-05-07 17:02 | 51.21404 | -4.52242 | 31491 ft | 361 kts | 278° |
| 2026-05-07 17:02 | 51.22163 | -4.56034 | 31695 ft | 360 kts | 278° |
| 2026-05-07 17:02 | 51.22924 | -4.59840 | 31896 ft | 359 kts | 278° |
| 2026-05-07 17:02 | 51.23677 | -4.63614 | 32090 ft | 358 kts | 278° |
| 2026-05-07 17:03 | 51.24401 | -4.67254 | 32276 ft | 357 kts | 278° |
| 2026-05-07 17:03 | 51.25145 | -4.71005 | 32475 ft | 357 kts | 278° |
| 2026-05-07 17:03 | 51.25888 | -4.74758 | 32648 ft | 357 kts | 278° |
| 2026-05-07 17:03 | 51.26637 | -4.78543 | 32809 ft | 357 kts | 277° |
| 2026-05-07 17:04 | 51.27387 | -4.82344 | 32971 ft | 357 kts | 277° |
| 2026-05-07 17:04 | 51.28129 | -4.86106 | 33123 ft | 358 kts | 277° |
| 2026-05-07 17:04 | 51.28880 | -4.89924 | 33266 ft | 358 kts | 277° |
| 2026-05-07 17:04 | 51.29627 | -4.93729 | 33404 ft | 359 kts | 277° |
| 2026-05-07 17:05 | 51.30371 | -4.97540 | 33540 ft | 359 kts | 276° |
| 2026-05-07 17:05 | 51.31023 | -5.01332 | 33677 ft | 357 kts | 274° |
| 2026-05-07 17:05 | 51.31569 | -5.05182 | 33813 ft | 354 kts | 272° |
| 2026-05-07 17:05 | 51.32003 | -5.09055 | 33951 ft | 352 kts | 270° |
| 2026-05-07 17:06 | 51.32771 | -5.16793 | 33995 ft | 353 kts | 270° |
| 2026-05-07 17:06 | 51.33527 | -5.24530 | 33998 ft | 353 kts | 270° |
| 2026-05-07 17:07 | 51.34277 | -5.32275 | 33999 ft | 353 kts | 270° |
| 2026-05-07 17:07 | 51.35018 | -5.40027 | 33999 ft | 353 kts | 270° |
| 2026-05-07 17:08 | 51.35752 | -5.47747 | 33999 ft | 353 kts | 270° |
| 2026-05-07 17:08 | 51.36483 | -5.55512 | 33999 ft | 353 kts | 270° |
| 2026-05-07 17:09 | 51.37213 | -5.63313 | 33999 ft | 353 kts | 270° |
| 2026-05-07 17:09 | 51.37919 | -5.70926 | 34000 ft | 352 kts | 269° |
| 2026-05-07 17:10 | 51.38632 | -5.78673 | 33999 ft | 352 kts | 269° |
| 2026-05-07 17:10 | 51.39344 | -5.86456 | 33996 ft | 352 kts | 269° |
| 2026-05-07 17:11 | 51.40042 | -5.94148 | 33988 ft | 352 kts | 269° |
| 2026-05-07 17:11 | 51.40744 | -6.01934 | 33979 ft | 352 kts | 269° |
| 2026-05-07 17:12 | 51.41437 | -6.09700 | 33974 ft | 352 kts | 269° |
| 2026-05-07 17:12 | 51.42121 | -6.17417 | 33973 ft | 352 kts | 269° |
| 2026-05-07 17:13 | 51.42807 | -6.25217 | 33972 ft | 352 kts | 269° |
| 2026-05-07 17:13 | 51.43485 | -6.32976 | 33972 ft | 353 kts | 269° |
| 2026-05-07 17:14 | 51.44157 | -6.40743 | 33973 ft | 353 kts | 269° |
| 2026-05-07 17:14 | 51.44825 | -6.48510 | 33973 ft | 353 kts | 269° |
| 2026-05-07 17:15 | 51.45490 | -6.56305 | 33973 ft | 353 kts | 269° |
| 2026-05-07 17:15 | 51.46144 | -6.64052 | 33973 ft | 352 kts | 269° |
| 2026-05-07 17:16 | 51.46804 | -6.71909 | 33973 ft | 352 kts | 268° |
| 2026-05-07 17:16 | 51.47449 | -6.79668 | 33973 ft | 352 kts | 268° |
| 2026-05-07 17:17 | 51.48095 | -6.87479 | 33973 ft | 352 kts | 268° |
| 2026-05-07 17:17 | 51.48730 | -6.95261 | 33973 ft | 352 kts | 268° |
| 2026-05-07 17:18 | 51.49365 | -7.03087 | 33973 ft | 352 kts | 268° |
| 2026-05-07 17:18 | 51.50200 | -7.10882 | 33973 ft | 358 kts | 272° |
| 2026-05-07 17:19 | 51.51412 | -7.18702 | 33971 ft | 362 kts | 274° |
| 2026-05-07 17:19 | 51.52668 | -7.26494 | 33972 ft | 362 kts | 274° |
| 2026-05-07 17:20 | 51.53926 | -7.34313 | 33972 ft | 362 kts | 274° |
| 2026-05-07 17:20 | 51.55197 | -7.42237 | 33973 ft | 362 kts | 274° |
| 2026-05-07 17:21 | 51.56463 | -7.50159 | 33971 ft | 362 kts | 274° |
| 2026-05-07 17:21 | 51.57712 | -7.58003 | 33967 ft | 362 kts | 274° |
| 2026-05-07 17:22 | 51.58951 | -7.65830 | 33966 ft | 362 kts | 273° |
| 2026-05-07 17:22 | 51.60187 | -7.73670 | 33959 ft | 361 kts | 273° |
| 2026-05-07 17:23 | 51.61429 | -7.81585 | 33956 ft | 362 kts | 273° |
| 2026-05-07 17:23 | 51.62657 | -7.89450 | 33954 ft | 362 kts | 273° |
| 2026-05-07 17:24 | 51.63884 | -7.97342 | 33949 ft | 362 kts | 273° |
| 2026-05-07 17:24 | 51.65094 | -8.05163 | 33945 ft | 362 kts | 273° |
| 2026-05-07 17:25 | 51.66319 | -8.13127 | 33945 ft | 362 kts | 273° |
| 2026-05-07 17:25 | 51.67524 | -8.20985 | 33945 ft | 362 kts | 273° |
| 2026-05-07 17:26 | 51.68722 | -8.28853 | 33944 ft | 362 kts | 273° |
| 2026-05-07 17:26 | 51.69918 | -8.36739 | 33944 ft | 362 kts | 273° |
| 2026-05-07 17:27 | 51.71109 | -8.44630 | 33944 ft | 362 kts | 273° |
| 2026-05-07 17:27 | 51.72291 | -8.52507 | 33944 ft | 362 kts | 273° |
| 2026-05-07 17:28 | 51.73474 | -8.60426 | 33944 ft | 362 kts | 273° |
| 2026-05-07 17:28 | 51.74645 | -8.68309 | 33945 ft | 362 kts | 272° |
| 2026-05-07 17:29 | 51.75811 | -8.76187 | 33944 ft | 361 kts | 272° |
| 2026-05-07 17:29 | 51.76967 | -8.84042 | 33945 ft | 362 kts | 272° |
| 2026-05-07 17:30 | 51.78128 | -8.91959 | 33944 ft | 361 kts | 272° |
| 2026-05-07 17:30 | 51.79274 | -8.99816 | 33941 ft | 361 kts | 272° |
| 2026-05-07 17:31 | 51.80419 | -9.07709 | 33934 ft | 362 kts | 271° |
| 2026-05-07 17:31 | 51.81560 | -9.15621 | 33924 ft | 361 kts | 271° |
| 2026-05-07 17:32 | 51.82692 | -9.23518 | 33920 ft | 362 kts | 271° |
| 2026-05-07 17:32 | 51.83822 | -9.31440 | 33919 ft | 362 kts | 271° |
| 2026-05-07 17:33 | 51.84942 | -9.39328 | 33918 ft | 362 kts | 271° |
| 2026-05-07 17:33 | 51.86062 | -9.47264 | 33918 ft | 361 kts | 272° |
| 2026-05-07 17:34 | 51.87168 | -9.55139 | 33918 ft | 361 kts | 272° |
| 2026-05-07 17:34 | 51.88280 | -9.63094 | 33918 ft | 361 kts | 271° |
| 2026-05-07 17:35 | 51.89375 | -9.70980 | 33918 ft | 360 kts | 271° |
| 2026-05-07 17:35 | 51.90466 | -9.78869 | 33918 ft | 360 kts | 271° |
| 2026-05-07 17:36 | 51.91549 | -9.86741 | 33916 ft | 361 kts | 271° |
| 2026-05-07 17:36 | 51.92633 | -9.94663 | 33916 ft | 360 kts | 271° |
| 2026-05-07 17:37 | 51.93713 | -10.02598 | 33918 ft | 361 kts | 271° |
| 2026-05-07 17:37 | 51.94784 | -10.10515 | 33917 ft | 361 kts | 271° |
| 2026-05-07 17:38 | 51.95856 | -10.18474 | 33918 ft | 361 kts | 271° |
| 2026-05-07 17:38 | 51.96914 | -10.26381 | 33919 ft | 361 kts | 271° |
| 2026-05-07 17:39 | 51.97977 | -10.34365 | 33918 ft | 361 kts | 271° |
| 2026-05-07 17:39 | 51.99026 | -10.42284 | 33919 ft | 361 kts | 271° |
| 2026-05-07 17:40 | 52.00072 | -10.50239 | 33917 ft | 361 kts | 271° |
| 2026-05-07 17:40 | 52.01114 | -10.58188 | 33917 ft | 361 kts | 271° |
| 2026-05-07 17:41 | 52.02150 | -10.66153 | 33919 ft | 360 kts | 270° |
| 2026-05-07 17:41 | 52.03179 | -10.74103 | 33920 ft | 360 kts | 270° |
| 2026-05-07 17:42 | 52.04196 | -10.82006 | 33917 ft | 360 kts | 270° |
| 2026-05-07 17:42 | 52.05211 | -10.89971 | 33916 ft | 363 kts | 271° |
| 2026-05-07 17:43 | 52.06231 | -10.98042 | 33926 ft | 363 kts | 272° |
| 2026-05-07 17:43 | 52.07254 | -11.06120 | 33937 ft | 368 kts | 272° |
| 2026-05-07 17:44 | 52.08277 | -11.14228 | 33942 ft | 368 kts | 272° |
| 2026-05-07 17:44 | 52.09302 | -11.22397 | 33943 ft | 368 kts | 272° |
| 2026-05-07 17:45 | 52.10320 | -11.30537 | 33940 ft | 368 kts | 272° |
| 2026-05-07 17:45 | 52.11351 | -11.38653 | 33943 ft | 369 kts | 272° |
| 2026-05-07 17:46 | 52.12370 | -11.46833 | 33944 ft | 369 kts | 272° |
| 2026-05-07 17:46 | 52.13374 | -11.54995 | 33941 ft | 368 kts | 272° |
| 2026-05-07 17:47 | 52.14371 | -11.63164 | 33942 ft | 369 kts | 272° |
| 2026-05-07 17:47 | 52.15349 | -11.71290 | 33942 ft | 367 kts | 272° |
| 2026-05-07 17:48 | 52.16327 | -11.79438 | 33943 ft | 368 kts | 272° |
| 2026-05-07 17:48 | 52.17299 | -11.87597 | 33943 ft | 367 kts | 272° |
| 2026-05-07 17:49 | 52.18267 | -11.95763 | 33941 ft | 367 kts | 271° |
| 2026-05-07 17:49 | 52.19227 | -12.03932 | 33943 ft | 368 kts | 271° |
| 2026-05-07 17:50 | 52.20181 | -12.12088 | 33943 ft | 368 kts | 271° |
| 2026-05-07 17:50 | 52.21132 | -12.20290 | 33943 ft | 368 kts | 271° |
| 2026-05-07 17:51 | 52.22077 | -12.28476 | 33945 ft | 368 kts | 271° |
| 2026-05-07 17:51 | 52.23016 | -12.36664 | 33941 ft | 367 kts | 271° |
| 2026-05-07 17:52 | 52.23948 | -12.44852 | 33943 ft | 368 kts | 271° |
| 2026-05-07 17:52 | 52.24875 | -12.53034 | 33945 ft | 368 kts | 271° |
| 2026-05-07 17:53 | 52.25797 | -12.61226 | 33941 ft | 368 kts | 271° |
| 2026-05-07 17:53 | 52.26713 | -12.69448 | 33945 ft | 367 kts | 271° |
| 2026-05-07 17:54 | 52.27625 | -12.77665 | 33940 ft | 367 kts | 271° |
| 2026-05-07 17:54 | 52.28527 | -12.85846 | 33942 ft | 368 kts | 271° |
| 2026-05-07 17:55 | 52.29427 | -12.94057 | 33943 ft | 368 kts | 271° |
| 2026-05-07 17:55 | 52.30318 | -13.02299 | 33944 ft | 369 kts | 271° |
| 2026-05-07 17:56 | 52.31206 | -13.10575 | 33943 ft | 373 kts | 272° |
| 2026-05-07 17:56 | 52.32106 | -13.18998 | 33939 ft | 377 kts | 273° |
| 2026-05-07 17:57 | 52.32852 | -13.25975 | 33942 ft | 379 kts | 273° |
| 2026-05-07 17:57 | 52.33910 | -13.35908 | 33943 ft | 378 kts | 273° |
| 2026-05-07 17:58 | 52.34797 | -13.44343 | 33942 ft | 378 kts | 273° |
| 2026-05-07 17:58 | 52.35680 | -13.52787 | 33943 ft | 380 kts | 273° |
| 2026-05-07 17:59 | 52.36563 | -13.61336 | 33943 ft | 379 kts | 273° |
| 2026-05-07 17:59 | 52.37431 | -13.69781 | 33945 ft | 378 kts | 272° |
| 2026-05-07 18:00 | 52.38297 | -13.78273 | 33941 ft | 378 kts | 272° |
| 2026-05-07 18:00 | 52.39156 | -13.86759 | 33943 ft | 379 kts | 272° |
| 2026-05-07 18:01 | 52.40009 | -13.95242 | 33942 ft | 378 kts | 272° |
| 2026-05-07 18:01 | 52.40852 | -14.03692 | 33941 ft | 378 kts | 272° |
| 2026-05-07 18:02 | 52.42112 | -14.16459 | 33943 ft | 378 kts | 272° |
| 2026-05-07 18:03 | 52.42941 | -14.24933 | 33942 ft | 378 kts | 272° |
| 2026-05-07 18:03 | 52.43771 | -14.33479 | 33944 ft | 378 kts | 272° |
| 2026-05-07 18:04 | 52.44588 | -14.41962 | 33941 ft | 378 kts | 272° |
| 2026-05-07 18:04 | 52.45401 | -14.50461 | 33943 ft | 378 kts | 272° |
| 2026-05-07 18:05 | 52.46202 | -14.58937 | 33942 ft | 378 kts | 272° |
| 2026-05-07 18:05 | 52.47003 | -14.67438 | 33945 ft | 378 kts | 271° |
| 2026-05-07 18:06 | 52.47798 | -14.75976 | 33944 ft | 378 kts | 271° |
| 2026-05-07 18:06 | 52.48581 | -14.84454 | 33942 ft | 378 kts | 271° |
| 2026-05-07 18:07 | 52.49364 | -14.93007 | 33943 ft | 379 kts | 272° |
| 2026-05-07 18:07 | 52.49926 | -15.01520 | 33941 ft | 377 kts | 268° |
| 2026-05-07 18:08 | 52.50066 | -15.10120 | 33941 ft | 379 kts | 266° |
| 2026-05-07 18:08 | 52.50144 | -15.18777 | 33942 ft | 381 kts | 266° |
| 2026-05-07 18:09 | 52.50213 | -15.27447 | 33943 ft | 381 kts | 267° |
| 2026-05-07 18:09 | 52.50273 | -15.36111 | 33942 ft | 381 kts | 266° |
| 2026-05-07 18:10 | 52.50326 | -15.44827 | 33942 ft | 381 kts | 266° |
| 2026-05-07 18:10 | 52.50371 | -15.53507 | 33943 ft | 381 kts | 267° |
| 2026-05-07 18:11 | 52.50412 | -15.62126 | 33942 ft | 381 kts | 266° |
| 2026-05-07 18:11 | 52.50442 | -15.70809 | 33943 ft | 381 kts | 266° |
| 2026-05-07 18:12 | 52.50469 | -15.79525 | 33943 ft | 381 kts | 266° |
| 2026-05-07 18:12 | 52.50488 | -15.88195 | 33943 ft | 381 kts | 266° |
| 2026-05-07 18:13 | 52.50502 | -15.96829 | 33943 ft | 381 kts | 266° |
| 2026-05-07 18:13 | 52.50507 | -16.05531 | 33943 ft | 380 kts | 266° |
| 2026-05-07 18:14 | 52.50509 | -16.14186 | 33942 ft | 380 kts | 266° |
| 2026-05-07 18:14 | 52.50502 | -16.22827 | 33942 ft | 380 kts | 266° |
| 2026-05-07 18:15 | 52.50489 | -16.31534 | 33943 ft | 380 kts | 266° |
| 2026-05-07 18:15 | 52.50471 | -16.40183 | 33943 ft | 381 kts | 266° |
| 2026-05-07 18:16 | 52.50446 | -16.48859 | 33942 ft | 380 kts | 266° |
| 2026-05-07 18:16 | 52.50414 | -16.57522 | 33942 ft | 380 kts | 266° |
| 2026-05-07 18:17 | 52.50378 | -16.66176 | 33944 ft | 381 kts | 265° |
| 2026-05-07 18:17 | 52.50334 | -16.74878 | 33943 ft | 381 kts | 265° |
| 2026-05-07 18:18 | 52.50285 | -16.83533 | 33943 ft | 381 kts | 265° |
| 2026-05-07 18:18 | 52.50223 | -16.92215 | 33941 ft | 381 kts | 266° |
| 2026-05-07 18:19 | 52.50158 | -17.00921 | 33943 ft | 382 kts | 266° |
| 2026-05-07 18:19 | 52.50089 | -17.09675 | 33943 ft | 383 kts | 266° |
| 2026-05-07 18:20 | 52.50016 | -17.18385 | 33942 ft | 383 kts | 266° |
| 2026-05-07 18:20 | 52.49934 | -17.27123 | 33943 ft | 383 kts | 266° |
| 2026-05-07 18:21 | 52.49845 | -17.35873 | 33943 ft | 383 kts | 266° |
| 2026-05-07 18:21 | 52.49750 | -17.44556 | 33943 ft | 383 kts | 266° |
| 2026-05-07 18:22 | 52.49649 | -17.53288 | 33943 ft | 383 kts | 266° |
| 2026-05-07 18:22 | 52.49540 | -17.62021 | 33943 ft | 383 kts | 266° |
| 2026-05-07 18:23 | 52.49426 | -17.70766 | 33944 ft | 383 kts | 266° |
| 2026-05-07 18:23 | 52.49306 | -17.79454 | 33943 ft | 383 kts | 266° |
| 2026-05-07 18:24 | 52.49179 | -17.88193 | 33943 ft | 383 kts | 266° |
| 2026-05-07 18:24 | 52.49047 | -17.96884 | 33943 ft | 383 kts | 266° |
| 2026-05-07 18:25 | 52.48905 | -18.05629 | 33943 ft | 383 kts | 266° |
| 2026-05-07 18:25 | 52.48760 | -18.14300 | 33943 ft | 383 kts | 266° |
| 2026-05-07 18:26 | 52.48606 | -18.23049 | 33943 ft | 383 kts | 265° |
| 2026-05-07 18:26 | 52.48446 | -18.31774 | 33943 ft | 383 kts | 266° |
| 2026-05-07 18:27 | 52.48280 | -18.40507 | 33943 ft | 383 kts | 266° |
| 2026-05-07 18:27 | 52.48108 | -18.49171 | 33943 ft | 383 kts | 266° |
| 2026-05-07 18:28 | 52.47929 | -18.57921 | 33942 ft | 383 kts | 266° |
| 2026-05-07 18:28 | 52.47742 | -18.66644 | 33945 ft | 383 kts | 265° |
| 2026-05-07 18:29 | 52.47553 | -18.75326 | 33943 ft | 383 kts | 265° |
| 2026-05-07 18:29 | 52.47356 | -18.84082 | 33943 ft | 383 kts | 265° |
| 2026-05-07 18:30 | 52.47151 | -18.92758 | 33943 ft | 383 kts | 265° |
| 2026-05-07 18:30 | 52.46940 | -19.01480 | 33942 ft | 383 kts | 265° |
| 2026-05-07 18:31 | 52.46720 | -19.10227 | 33942 ft | 385 kts | 265° |
| 2026-05-07 18:31 | 52.46493 | -19.19014 | 33943 ft | 386 kts | 266° |
| 2026-05-07 18:32 | 52.46262 | -19.27821 | 33943 ft | 387 kts | 266° |
| 2026-05-07 18:32 | 52.46024 | -19.36623 | 33943 ft | 387 kts | 266° |
| 2026-05-07 18:33 | 52.45780 | -19.45410 | 33943 ft | 387 kts | 266° |
| 2026-05-07 18:33 | 52.45528 | -19.54228 | 33942 ft | 387 kts | 266° |
| 2026-05-07 18:34 | 52.45269 | -19.63026 | 33943 ft | 387 kts | 266° |